Terminal Aerodrome Forecast
Issued by NWS

Home | Current Version | Previous Version | Text Only | Print | Product List | Glossary On
Versions: 1 2 3 4 5 6 7 8 9 10 11 12 13 14 15 16 17 18 19 20 21 22 23 24 25 26 27 28 29 30 31 32 33 34 35 36 37
601
FTUS41 KOKX 292136 AAB
TAFSWF
TAF AMD
KSWF 292136Z 2922/3024 34011G20KT P6SM FEW040
     FM292300 35011KT P6SM SKC
     FM300300 34006KT P6SM SKC
     FM301400 02005KT P6SM SCT200
     FM301800 VRB04KT P6SM BKN150
      AMD NOT SKED=

USA.gov is the U.S. government's official web portal to all federal, state and local government web resources and services.